Keg River, Canada
Current Conditions -  °F | °C
As of 11:00 AM on Thursday 23 Oct 2014 (Local Time) from CYOJ Reporting Station
Broken Clouds Broken Clouds  
Wind Chill: 21°   Ceiling: 17000
Heat Index: 30°   Visibility: 15mi
Dew Point: 27°   Wind: 12mph
Humidity: 86%   Direction: 360°N
Pressure: 29.58"   Gusts: 21mph
Location:  57.8°N, 117.87°W
Report Text: CYOJ 231700Z 36010G18KT 15SM SCT011 BKN170 M01/M03 A2958 RMK SC4AS3 SLP035
Loading
Personal Weather Stations






























Interactive Weather Map
Tropical Storm Tracking
New forecast layout! Learn more

10-Day Weather Forecast

Advertisements
Track Severe Weather on mobile